Time;durP1;ratioP1;P1;durP2;ratioP2;P2;SDS_P1;SDS_P2;PMS_P1;PMS_P2;Temp;Humidity;BMP_temperature;BMP_pressure;BME280_temperature;BME280_humidity;BME280_pressure;Samples;Min_cycle;Max_cycle;Signal;HPM_P1;HPM_P2
2022/03/30 00:01:30;;;;;;;1.85;1.75;;;13.30;99.90;;;;;;4993183;28;20205;-61
2022/03/30 00:03:59;;;;;;;2.30;2.10;;;13.30;99.90;;;;;;4992620;28;20208;-60
2022/03/30 00:06:26;;;;;;;2.17;2.05;;;13.30;99.90;;;;;;4992733;28;20317;-62
2022/03/30 00:08:52;;;;;;;2.22;2.10;;;13.30;99.90;;;;;;4992674;28;20467;-61
2022/03/30 00:11:19;;;;;;;2.05;1.90;;;13.30;99.90;;;;;;4993824;28;20233;-62
2022/03/30 00:13:46;;;;;;;2.60;2.40;;;13.40;99.90;;;;;;4997585;28;20212;-62
2022/03/30 00:16:13;;;;;;;3.05;2.47;;;13.30;99.90;;;;;;4992988;28;20232;-62
2022/03/30 00:18:40;;;;;;;2.28;2.08;;;13.30;99.90;;;;;;4992343;28;20205;-61
2022/03/30 00:21:08;;;;;;;2.47;2.30;;;13.30;99.90;;;;;;4992466;28;20202;-62
2022/03/30 00:23:35;;;;;;;2.70;2.50;;;13.20;99.90;;;;;;4992572;28;20684;-62
2022/03/30 00:26:02;;;;;;;3.03;2.72;;;13.10;99.90;;;;;;4992534;28;20225;-63
2022/03/30 00:28:29;;;;;;;2.30;2.20;;;13.10;99.90;;;;;;4990263;28;20326;-63
2022/03/30 00:30:57;;;;;;;2.55;2.33;;;13.10;99.90;;;;;;4992899;28;20759;-63
2022/03/30 00:33:24;;;;;;;2.70;2.25;;;13.10;99.90;;;;;;4993618;28;20206;-63
2022/03/30 00:35:51;;;;;;;2.58;2.38;;;13.00;99.90;;;;;;4998450;28;20222;-62
2022/03/30 00:38:19;;;;;;;2.97;2.22;;;13.00;99.90;;;;;;4994484;28;20692;-60
2022/03/30 00:40:46;;;;;;;2.17;2.05;;;13.00;99.90;;;;;;4993044;28;20572;-61
2022/03/30 00:43:13;;;;;;;2.60;2.40;;;13.00;99.90;;;;;;4992180;28;20210;-64
2022/03/30 00:45:40;;;;;;;2.30;2.10;;;13.00;99.90;;;;;;5009034;23;21047;-68
2022/03/30 00:48:08;;;;;;;2.72;2.50;;;13.00;99.90;;;;;;5011313;28;20209;-68
2022/03/30 00:50:35;;;;;;;2.42;2.22;;;13.00;99.90;;;;;;5024791;28;20200;-66
2022/03/30 00:53:02;;;;;;;3.42;2.33;;;13.00;99.90;;;;;;5016560;28;20587;-69
2022/03/30 00:55:31;;;;;;;2.90;2.60;;;13.00;99.90;;;;;;5011957;28;20232;-68
2022/03/30 00:57:59;;;;;;;2.60;2.03;;;12.90;99.90;;;;;;5007432;28;20228;-65
2022/03/30 01:00:26;;;;;;;2.60;2.40;;;12.90;99.90;;;;;;5012346;28;20224;-67
2022/03/30 01:02:54;;;;;;;2.40;2.20;;;12.90;99.90;;;;;;5016306;28;20510;-66
2022/03/30 01:05:21;;;;;;;2.85;2.50;;;12.90;99.90;;;;;;5012295;28;20301;-69
2022/03/30 01:07:48;;;;;;;2.65;2.45;;;12.90;99.90;;;;;;5026318;28;20209;-68
2022/03/30 01:10:17;;;;;;;2.53;2.30;;;12.80;99.90;;;;;;5015207;28;20642;-67
2022/03/30 01:12:47;;;;;;;2.83;2.42;;;12.70;99.90;;;;;;5011733;28;20272;-67
2022/03/30 01:15:15;;;;;;;3.45;2.70;;;12.70;99.90;;;;;;5010845;28;20769;-66
2022/03/30 01:17:42;;;;;;;2.60;2.40;;;12.70;99.90;;;;;;5011384;28;20717;-66
2022/03/30 01:20:10;;;;;;;2.70;2.45;;;12.60;99.90;;;;;;5011295;28;20292;-66
2022/03/30 01:22:39;;;;;;;2.30;2.20;;;12.60;99.90;;;;;;5011790;28;20224;-69
2022/03/30 01:25:07;;;;;;;2.05;1.95;;;12.60;99.90;;;;;;5010293;28;20201;-67
2022/03/30 01:27:34;;;;;;;2.65;2.10;;;12.60;99.90;;;;;;5010807;28;20300;-67
2022/03/30 01:32:55;;;;;;;3.28;2.40;;;12.60;99.90;;;;;;5012182;28;20409;-67
2022/03/30 01:35:22;;;;;;;2.75;2.35;;;12.60;99.90;;;;;;5012694;28;20243;-67
2022/03/30 01:37:50;;;;;;;2.63;2.20;;;12.60;99.90;;;;;;5011245;28;20206;-67
2022/03/30 01:40:18;;;;;;;2.42;2.28;;;12.60;99.90;;;;;;5011196;28;20711;-68
2022/03/30 01:42:44;;;;;;;2.22;2.10;;;12.70;99.90;;;;;;5011150;28;20209;-66
2022/03/30 01:45:15;;;;;;;2.40;2.20;;;12.70;99.90;;;;;;5010663;28;20784;-67
2022/03/30 01:47:42;;;;;;;2.47;2.10;;;12.70;99.90;;;;;;5012856;28;20701;-69
2022/03/30 01:50:11;;;;;;;2.35;2.15;;;12.70;99.90;;;;;;5024915;28;20228;-66
2022/03/30 01:52:38;;;;;;;2.28;2.08;;;12.80;99.90;;;;;;5018411;28;20201;-67
2022/03/30 01:55:07;;;;;;;2.15;2.05;;;12.80;99.90;;;;;;4999308;28;20236;-66
2022/03/30 01:57:33;;;;;;;2.05;1.90;;;12.80;99.90;;;;;;5003156;28;20208;-66
2022/03/30 02:00:03;;;;;;;2.53;2.33;;;12.90;99.90;;;;;;4995093;28;20297;-66
2022/03/30 02:02:30;;;;;;;1.77;1.67;;;12.90;99.90;;;;;;4995309;28;20308;-66
2022/03/30 02:04:57;;;;;;;2.42;2.22;;;12.90;99.90;;;;;;4994932;28;20293;-66
2022/03/30 02:07:24;;;;;;;3.53;2.55;;;12.90;99.90;;;;;;4995561;28;20297;-65
2022/03/30 02:09:51;;;;;;;2.33;2.22;;;12.90;99.90;;;;;;4995628;28;20297;-67
2022/03/30 02:12:21;;;;;;;2.47;2.28;;;12.80;99.90;;;;;;5006069;28;20270;-66
2022/03/30 02:14:51;;;;;;;2.00;1.90;;;12.80;99.90;;;;;;5001720;28;20321;-68
2022/03/30 02:17:19;;;;;;;2.30;2.10;;;12.80;99.90;;;;;;5008419;28;20518;-68
2022/03/30 02:19:46;;;;;;;2.70;2.50;;;12.80;99.90;;;;;;4995933;28;20255;-66
2022/03/30 02:22:13;;;;;;;2.60;2.30;;;12.80;99.90;;;;;;4994747;28;20210;-68
2022/03/30 02:24:40;;;;;;;2.30;2.08;;;12.80;99.90;;;;;;4994570;28;20234;-67
2022/03/30 02:27:07;;;;;;;2.03;1.92;;;12.80;99.90;;;;;;4994648;28;20229;-67
2022/03/30 02:29:36;;;;;;;2.25;2.05;;;12.80;99.90;;;;;;4994246;28;20260;-66
2022/03/30 02:32:03;;;;;;;3.30;2.50;;;12.70;99.90;;;;;;4995370;28;20615;-67
2022/03/30 02:34:31;;;;;;;2.58;2.38;;;12.60;99.90;;;;;;4994414;28;20296;-66
2022/03/30 02:36:58;;;;;;;2.42;2.22;;;12.60;99.90;;;;;;4995082;28;20234;-66
2022/03/30 02:39:24;;;;;;;2.30;2.20;;;12.50;99.90;;;;;;4994636;28;20289;-67
2022/03/30 02:41:51;;;;;;;2.72;2.50;;;12.50;99.90;;;;;;5009542;28;20206;-69
2022/03/30 02:44:18;;;;;;;2.88;2.10;;;12.40;99.90;;;;;;5014463;28;20296;-67
2022/03/30 02:46:46;;;;;;;2.20;2.10;;;12.40;99.90;;;;;;5013739;28;20891;-67
2022/03/30 02:49:13;;;;;;;2.78;2.58;;;12.30;99.90;;;;;;5013928;28;20288;-68
2022/03/30 02:51:40;;;;;;;3.00;2.70;;;12.30;99.90;;;;;;5015263;28;20292;-66
2022/03/30 02:54:08;;;;;;;2.72;2.50;;;12.30;99.90;;;;;;5018798;28;20213;-68
2022/03/30 02:56:35;;;;;;;3.00;2.70;;;12.20;99.90;;;;;;5017555;28;20296;-68
2022/03/30 02:59:02;;;;;;;2.75;2.55;;;12.10;99.90;;;;;;5022555;28;20237;-67
2022/03/30 03:01:29;;;;;;;2.65;2.45;;;12.10;99.90;;;;;;5018317;28;20668;-68
2022/03/30 03:03:57;;;;;;;2.67;2.47;;;12.00;99.90;;;;;;5018518;28;20571;-67
2022/03/30 03:06:24;;;;;;;2.63;2.42;;;12.00;99.90;;;;;;5014261;28;20284;-68
2022/03/30 03:08:51;;;;;;;2.80;2.55;;;11.90;99.90;;;;;;5023331;28;20225;-67
2022/03/30 03:11:18;;;;;;;2.75;2.50;;;11.90;99.90;;;;;;5020660;28;20205;-69
2022/03/30 03:13:45;;;;;;;2.17;1.98;;;11.80;99.90;;;;;;5014037;28;20296;-68
2022/03/30 03:16:13;;;;;;;2.70;2.47;;;11.80;99.90;;;;;;5013581;28;20229;-67
2022/03/30 03:18:40;;;;;;;2.25;2.10;;;11.80;99.90;;;;;;5013210;28;20209;-70
2022/03/30 03:21:08;;;;;;;2.30;2.20;;;11.80;99.90;;;;;;5013820;28;20293;-66
2022/03/30 03:23:35;;;;;;;2.80;2.60;;;11.80;99.90;;;;;;5013452;28;20798;-67
2022/03/30 03:26:02;;;;;;;2.60;2.40;;;11.80;99.90;;;;;;5013996;28;20364;-66
2022/03/30 03:28:30;;;;;;;2.25;2.10;;;11.80;99.90;;;;;;5013864;28;20201;-68
2022/03/30 03:30:57;;;;;;;3.38;2.53;;;11.70;99.90;;;;;;5013573;28;20209;-69
2022/03/30 03:33:23;;;;;;;2.58;2.40;;;11.70;99.90;;;;;;5013809;28;20638;-66
2022/03/30 03:35:50;;;;;;;2.22;2.13;;;11.70;99.90;;;;;;5013328;28;20236;-67
2022/03/30 03:38:19;;;;;;;3.28;2.28;;;11.70;99.90;;;;;;5013646;28;20573;-67
2022/03/30 03:40:46;;;;;;;2.25;2.15;;;11.70;99.90;;;;;;5007969;28;20222;-66
2022/03/30 03:43:13;;;;;;;3.00;2.70;;;11.70;99.90;;;;;;5007847;28;20292;-67
2022/03/30 03:45:40;;;;;;;2.88;2.58;;;11.70;99.90;;;;;;5012964;28;20233;-67
2022/03/30 03:48:07;;;;;;;3.45;2.58;;;11.60;99.90;;;;;;5012981;28;20299;-68
2022/03/30 03:50:34;;;;;;;2.10;2.00;;;11.60;99.90;;;;;;5012994;28;20202;-67
2022/03/30 03:53:02;;;;;;;2.70;2.50;;;11.60;99.90;;;;;;5009519;28;20213;-69
2022/03/30 03:55:33;;;;;;;3.63;2.70;;;11.70;99.90;;;;;;5012399;28;20236;-66
2022/03/30 03:58:01;;;;;;;2.70;2.50;;;11.70;99.90;;;;;;5012524;28;20205;-68
2022/03/30 04:00:28;;;;;;;2.65;2.45;;;11.70;99.90;;;;;;5012960;28;20216;-68
2022/03/30 04:02:55;;;;;;;2.70;2.50;;;11.70;99.90;;;;;;5012287;28;20830;-67
2022/03/30 04:05:22;;;;;;;2.40;2.20;;;11.70;99.90;;;;;;5012755;28;20228;-69
2022/03/30 04:07:48;;;;;;;2.63;2.42;;;11.70;99.90;;;;;;5017851;28;20210;-67
2022/03/30 04:10:16;;;;;;;2.22;2.03;;;11.70;99.90;;;;;;5023404;28;20711;-66
2022/03/30 04:12:44;;;;;;;2.58;2.38;;;11.70;99.90;;;;;;5013178;28;20209;-67
2022/03/30 04:15:11;;;;;;;2.90;2.70;;;11.70;99.90;;;;;;5012071;28;20229;-65
2022/03/30 04:17:44;;;;;;;2.50;2.30;;;11.70;99.90;;;;;;5012044;28;20296;-66
2022/03/30 04:20:12;;;;;;;2.60;2.40;;;11.70;99.90;;;;;;5011439;28;20304;-68
2022/03/30 04:22:39;;;;;;;2.72;2.45;;;11.60;99.90;;;;;;5010325;28;20690;-66
2022/03/30 04:25:07;;;;;;;2.10;2.00;;;11.50;99.90;;;;;;5011997;28;20213;-66
2022/03/30 04:27:33;;;;;;;2.30;2.20;;;11.60;99.90;;;;;;5012790;28;20205;-66
2022/03/30 04:30:02;;;;;;;2.40;2.20;;;11.50;99.90;;;;;;5014366;28;20205;-69
2022/03/30 04:32:29;;;;;;;2.43;2.27;;;11.50;99.90;;;;;;5012962;28;20640;-67
2022/03/30 04:34:55;;;;;;;2.30;2.20;;;11.50;99.90;;;;;;5012087;28;20213;-68
2022/03/30 04:37:22;;;;;;;2.60;2.38;;;11.60;99.90;;;;;;5012572;28;20219;-68
2022/03/30 04:39:49;;;;;;;2.30;2.03;;;11.60;99.90;;;;;;5010331;28;20208;-67
2022/03/30 04:42:16;;;;;;;2.10;2.00;;;11.60;99.90;;;;;;4999532;28;20296;-67
2022/03/30 04:44:43;;;;;;;2.72;2.53;;;11.50;99.90;;;;;;5004921;28;20232;-67
2022/03/30 04:47:11;;;;;;;3.13;2.33;;;11.50;99.90;;;;;;5003817;28;20308;-67
2022/03/30 04:49:38;;;;;;;3.00;2.67;;;11.40;99.90;;;;;;5010346;28;20296;-67
2022/03/30 04:52:06;;;;;;;2.60;2.40;;;11.40;99.90;;;;;;5008964;28;20300;-66
2022/03/30 04:54:33;;;;;;;2.80;2.42;;;11.40;99.90;;;;;;5004784;28;20914;-67
2022/03/30 04:57:00;;;;;;;2.53;2.33;;;11.50;99.90;;;;;;5010458;28;20312;-66
2022/03/30 04:59:27;;;;;;;3.05;2.78;;;11.40;99.90;;;;;;5011511;28;20293;-67
2022/03/30 05:01:54;;;;;;;2.40;2.20;;;11.40;99.90;;;;;;5014153;28;20205;-68
2022/03/30 05:04:22;;;;;;;2.83;2.63;;;11.30;99.90;;;;;;5012391;28;20293;-66
2022/03/30 05:06:49;;;;;;;3.05;2.75;;;11.30;99.90;;;;;;5011482;28;20312;-66
2022/03/30 05:09:15;;;;;;;3.13;2.80;;;11.20;99.90;;;;;;5011454;28;20743;-66
2022/03/30 05:11:43;;;;;;;3.17;2.88;;;11.20;99.90;;;;;;5010019;28;20203;-69
2022/03/30 05:14:10;;;;;;;2.90;2.60;;;11.20;99.90;;;;;;5011291;28;20205;-67
2022/03/30 05:16:37;;;;;;;3.08;2.70;;;11.20;99.90;;;;;;5010986;28;20569;-65
2022/03/30 05:19:04;;;;;;;2.33;2.13;;;11.20;99.90;;;;;;5011321;28;20216;-64
2022/03/30 05:21:32;;;;;;;2.75;2.40;;;11.30;99.90;;;;;;5006289;28;20262;-66
2022/03/30 05:23:59;;;;;;;2.90;2.60;;;11.40;99.90;;;;;;4999767;28;20288;-67
2022/03/30 05:26:28;;;;;;;2.50;2.30;;;11.40;99.90;;;;;;5000273;28;20289;-65
2022/03/30 05:28:55;;;;;;;2.85;2.50;;;11.50;99.90;;;;;;5004965;28;20201;-65
2022/03/30 05:31:22;;;;;;;2.50;2.30;;;11.40;99.90;;;;;;4997258;28;20239;-68
2022/03/30 05:33:48;;;;;;;2.45;2.25;;;11.40;99.90;;;;;;5005304;28;20565;-67
2022/03/30 05:36:15;;;;;;;2.70;2.22;;;11.40;99.90;;;;;;5005790;28;20221;-65
2022/03/30 05:38:44;;;;;;;3.20;2.90;;;11.40;99.90;;;;;;5016273;28;20245;-65
2022/03/30 05:41:11;;;;;;;2.92;2.72;;;11.40;99.90;;;;;;5002041;28;20206;-65
2022/03/30 05:43:38;;;;;;;3.00;2.78;;;11.40;99.90;;;;;;5003702;28;20300;-66
2022/03/30 05:46:05;;;;;;;3.60;2.65;;;11.30;99.90;;;;;;5014145;28;20320;-65
2022/03/30 05:48:32;;;;;;;2.53;2.30;;;11.30;99.90;;;;;;5009455;28;20205;-67
2022/03/30 05:50:59;;;;;;;3.30;2.63;;;11.40;99.90;;;;;;5016129;28;20208;-67
2022/03/30 05:53:26;;;;;;;2.50;2.30;;;11.30;99.90;;;;;;5006442;28;20206;-66
2022/03/30 05:55:56;;;;;;;2.50;2.30;;;11.40;99.90;;;;;;5011927;28;20295;-67
2022/03/30 05:58:23;;;;;;;2.70;2.50;;;11.40;99.90;;;;;;5012074;28;20202;-70
2022/03/30 06:00:51;;;;;;;2.67;2.47;;;11.40;99.90;;;;;;5012742;28;20296;-67
2022/03/30 06:03:18;;;;;;;2.65;2.45;;;11.40;99.90;;;;;;5014175;28;20209;-68
2022/03/30 06:05:45;;;;;;;2.70;2.50;;;11.40;99.90;;;;;;5013925;28;20223;-68
2022/03/30 06:08:12;;;;;;;2.50;2.30;;;11.40;99.90;;;;;;5005816;28;20209;-67
2022/03/30 06:10:39;;;;;;;2.70;2.50;;;11.40;99.90;;;;;;5007054;28;20621;-68
2022/03/30 06:13:08;;;;;;;2.58;2.38;;;11.50;99.90;;;;;;5009188;28;20229;-67
2022/03/30 06:15:35;;;;;;;2.72;2.53;;;11.50;99.90;;;;;;5013258;28;20229;-66
2022/03/30 06:18:03;;;;;;;2.70;2.50;;;11.40;99.90;;;;;;5013943;28;20237;-69
2022/03/30 06:20:30;;;;;;;2.85;2.50;;;11.50;99.90;;;;;;5006313;28;20255;-66
2022/03/30 06:22:57;;;;;;;2.95;2.75;;;11.50;99.90;;;;;;5009177;28;20212;-67
2022/03/30 06:25:25;;;;;;;2.75;2.55;;;11.50;99.90;;;;;;5012929;28;20217;-68
2022/03/30 06:27:53;;;;;;;3.08;2.78;;;11.50;99.90;;;;;;5011787;28;20209;-66
2022/03/30 06:30:21;;;;;;;2.55;2.35;;;11.50;99.90;;;;;;5013688;28;20548;-66
2022/03/30 06:32:49;;;;;;;2.50;2.30;;;11.60;99.90;;;;;;5013438;28;20272;-68
2022/03/30 06:35:18;;;;;;;2.40;2.20;;;11.60;99.90;;;;;;5013106;28;20635;-66
2022/03/30 06:37:45;;;;;;;3.63;2.60;;;11.60;99.90;;;;;;5012986;28;20271;-67
2022/03/30 06:40:12;;;;;;;2.63;2.22;;;11.60;99.90;;;;;;5012248;28;20240;-67
2022/03/30 06:42:39;;;;;;;2.13;1.92;;;11.60;99.90;;;;;;4993701;28;20357;-67
2022/03/30 06:45:08;;;;;;;2.00;1.90;;;11.60;99.90;;;;;;4994287;28;20209;-67
2022/03/30 06:47:36;;;;;;;2.42;2.22;;;11.70;99.90;;;;;;5014831;23;20707;-64
2022/03/30 06:50:05;;;;;;;3.13;2.47;;;11.70;99.90;;;;;;4994934;28;20264;-63
2022/03/30 06:52:32;;;;;;;2.38;2.17;;;11.70;99.90;;;;;;4995768;28;20233;-62
2022/03/30 06:55:00;;;;;;;3.30;3.00;;;11.70;99.90;;;;;;4995388;28;20210;-64
2022/03/30 06:57:28;;;;;;;3.47;3.17;;;11.70;99.90;;;;;;4980528;28;20616;-64
2022/03/30 06:59:54;;;;;;;2.92;2.70;;;11.70;99.90;;;;;;4974805;28;20306;-64
2022/03/30 07:02:21;;;;;;;2.58;2.38;;;11.70;99.90;;;;;;4973606;28;20669;-64
2022/03/30 07:04:50;;;;;;;2.65;2.45;;;11.70;99.90;;;;;;4974532;28;20253;-62
2022/03/30 07:10:16;;;;;;;2.72;2.45;;;11.70;99.90;;;;;;4960986;28;20209;-64
2022/03/30 07:12:43;;;;;;;2.20;2.10;;;11.80;99.90;;;;;;4976272;28;20293;-63
2022/03/30 07:15:10;;;;;;;2.67;2.47;;;11.70;99.90;;;;;;4975915;28;20302;-64
2022/03/30 07:17:45;;;;;;;2.45;2.20;;;11.70;99.90;;;;;;4976518;28;20318;-63
2022/03/30 07:20:14;;;;;;;2.42;2.13;;;11.70;99.90;;;;;;4976222;28;20206;-64
2022/03/30 07:22:41;;;;;;;2.10;2.00;;;11.70;99.90;;;;;;4974898;28;20265;-65
2022/03/30 07:25:09;;;;;;;2.40;2.30;;;11.70;99.90;;;;;;4974783;28;20238;-64
2022/03/30 07:27:38;;;;;;;2.47;2.28;;;11.70;99.90;;;;;;4974848;28;20317;-64
2022/03/30 07:30:07;;;;;;;2.13;2.00;;;11.70;99.90;;;;;;4974807;28;20215;-65
2022/03/30 07:32:35;;;;;;;2.90;2.50;;;11.70;99.90;;;;;;4974969;28;20559;-64
2022/03/30 07:35:02;;;;;;;2.58;2.38;;;11.70;99.90;;;;;;4974473;28;20209;-65
2022/03/30 07:37:31;;;;;;;2.20;2.00;;;11.70;99.90;;;;;;4974425;28;20322;-65
2022/03/30 07:39:57;;;;;;;2.40;2.20;;;11.70;99.90;;;;;;4974202;28;20215;-63
2022/03/30 07:42:24;;;;;;;2.13;1.92;;;11.80;99.90;;;;;;4976338;28;20297;-63
2022/03/30 07:44:51;;;;;;;1.92;1.83;;;11.90;99.90;;;;;;4974083;28;20203;-64
2022/03/30 07:47:19;;;;;;;2.30;2.10;;;11.90;99.90;;;;;;4974253;28;20243;-63
2022/03/30 07:49:46;;;;;;;2.10;2.00;;;11.90;99.90;;;;;;4974160;28;20217;-63
2022/03/30 07:52:13;;;;;;;2.72;2.53;;;11.90;99.90;;;;;;4984965;28;20210;-63
2022/03/30 07:54:42;;;;;;;2.75;2.15;;;11.90;99.90;;;;;;4974245;28;20265;-62
2022/03/30 07:57:09;;;;;;;2.30;2.10;;;11.80;99.90;;;;;;4974035;28;20333;-63
2022/03/30 07:59:36;;;;;;;2.33;2.20;;;11.90;99.90;;;;;;4973124;28;20274;-64
2022/03/30 08:02:04;;;;;;;1.80;1.70;;;11.90;99.90;;;;;;4974038;28;20207;-62
2022/03/30 08:04:31;;;;;;;2.50;2.30;;;12.00;99.90;;;;;;4975223;28;20217;-63
2022/03/30 08:06:58;;;;;;;2.20;2.00;;;12.00;99.90;;;;;;4974675;28;20266;-65
2022/03/30 08:09:25;;;;;;;2.15;1.92;;;12.10;99.90;;;;;;4976025;28;20202;-67
2022/03/30 08:11:54;;;;;;;2.33;2.20;;;12.20;99.90;;;;;;4978288;28;20297;-65
2022/03/30 08:14:21;;;;;;;2.17;1.95;;;12.20;99.90;;;;;;4977062;28;20297;-65
2022/03/30 08:16:48;;;;;;;2.28;2.08;;;12.20;99.90;;;;;;4981491;28;20260;-63
2022/03/30 08:19:14;;;;;;;2.53;2.33;;;12.20;99.90;;;;;;5001289;28;20202;-64
2022/03/30 08:24:26;;;;;;;2.35;2.15;;;12.20;99.90;;;;;;5005743;28;20221;-64
2022/03/30 08:26:54;;;;;;;2.55;2.15;;;12.20;99.90;;;;;;4999263;28;20317;-63
2022/03/30 08:29:21;;;;;;;2.20;2.00;;;12.30;99.90;;;;;;4995003;28;20293;-65
2022/03/30 08:31:48;;;;;;;2.40;2.20;;;12.30;99.90;;;;;;5002944;28;20245;-63
2022/03/30 08:34:15;;;;;;;2.13;2.03;;;12.30;99.90;;;;;;4997449;28;20213;-65
2022/03/30 08:36:42;;;;;;;2.58;2.38;;;12.30;99.90;;;;;;4994371;28;20228;-64
2022/03/30 08:39:11;;;;;;;2.03;1.90;;;12.30;99.90;;;;;;4993406;28;20296;-64
2022/03/30 08:41:42;;;;;;;2.20;2.08;;;12.40;99.90;;;;;;4994022;28;20210;-63
2022/03/30 08:44:12;;;;;;;2.03;1.92;;;12.40;99.90;;;;;;4993425;28;20297;-64
2022/03/30 08:46:39;;;;;;;2.08;1.85;;;12.50;99.90;;;;;;4993051;28;20730;-62
2022/03/30 08:49:06;;;;;;;2.40;1.90;;;12.60;99.90;;;;;;4993276;28;20719;-63
2022/03/30 08:51:37;;;;;;;2.50;2.30;;;12.60;99.90;;;;;;4993996;28;20206;-63
2022/03/30 08:54:05;;;;;;;3.28;2.50;;;12.60;99.90;;;;;;4993343;28;20278;-62
2022/03/30 08:56:32;;;;;;;3.17;2.40;;;12.60;99.90;;;;;;4981809;28;20310;-63
2022/03/30 08:59:04;;;;;;;2.67;2.47;;;12.60;99.90;;;;;;4973089;28;20301;-63
2022/03/30 09:01:34;;;;;;;3.05;2.75;;;12.50;99.90;;;;;;4973971;28;20187;-63
2022/03/30 09:04:04;;;;;;;2.63;2.42;;;12.50;99.90;;;;;;4973220;28;20232;-63
2022/03/30 09:06:36;;;;;;;2.27;2.07;;;12.60;99.90;;;;;;4973100;28;20222;-63
2022/03/30 09:09:06;;;;;;;2.20;2.00;;;12.60;99.90;;;;;;4972810;28;20232;-62
2022/03/30 09:11:44;;;;;;;2.70;2.00;;;12.70;99.90;;;;;;4973602;28;20692;-63
2022/03/30 09:14:12;;;;;;;2.40;2.20;;;12.70;99.90;;;;;;4973164;28;20253;-63
2022/03/30 09:16:42;;;;;;;1.88;1.77;;;12.70;99.90;;;;;;4973334;28;20238;-64
2022/03/30 09:19:10;;;;;;;3.40;2.20;;;12.80;99.90;;;;;;4972773;28;20250;-63
2022/03/30 09:21:41;;;;;;;2.08;1.98;;;12.90;99.90;;;;;;4973141;28;20309;-65
2022/03/30 09:24:08;;;;;;;2.30;2.17;;;12.90;99.90;;;;;;4972599;28;20645;-62
2022/03/30 09:26:36;;;;;;;2.47;2.28;;;13.00;99.90;;;;;;4972649;28;20261;-63
2022/03/30 09:29:04;;;;;;;2.80;2.60;;;13.10;99.90;;;;;;4972350;28;20242;-64
2022/03/30 09:31:32;;;;;;;3.50;3.20;;;13.10;99.90;;;;;;4973740;28;20206;-64
2022/03/30 09:34:02;;;;;;;2.83;2.63;;;13.10;99.90;;;;;;4973196;28;20301;-62
2022/03/30 09:36:31;;;;;;;2.58;2.38;;;13.10;99.90;;;;;;4972706;28;20267;-63
2022/03/30 09:38:58;;;;;;;2.50;2.30;;;13.10;99.90;;;;;;4972693;28;20245;-64
2022/03/30 09:41:25;;;;;;;2.30;2.10;;;13.10;99.90;;;;;;4972593;28;20256;-63
2022/03/30 09:44:03;;;;;;;2.45;2.25;;;13.20;99.90;;;;;;4975487;28;20230;-63
2022/03/30 09:46:30;;;;;;;2.20;2.03;;;13.30;99.90;;;;;;4973943;28;20246;-62
2022/03/30 09:48:57;;;;;;;2.78;2.58;;;13.30;99.90;;;;;;4973660;28;20210;-64
2022/03/30 09:51:27;;;;;;;2.65;2.45;;;13.40;99.90;;;;;;4974638;28;20214;-62
2022/03/30 09:53:54;;;;;;;2.28;2.08;;;13.40;99.90;;;;;;4972837;28;20253;-61
2022/03/30 09:56:23;;;;;;;2.58;2.00;;;13.50;99.90;;;;;;4972307;28;20717;-62
2022/03/30 09:58:59;;;;;;;1.83;1.70;;;13.60;99.90;;;;;;4971931;28;20321;-62
2022/03/30 10:01:29;;;;;;;2.10;2.00;;;13.60;99.90;;;;;;4972978;28;20290;-62
2022/03/30 10:03:59;;;;;;;2.65;1.80;;;13.70;99.90;;;;;;4972431;28;20211;-69
2022/03/30 10:06:29;;;;;;;2.00;1.90;;;13.70;99.90;;;;;;4972161;28;20285;-64
2022/03/30 10:08:57;;;;;;;1.87;1.70;;;13.70;99.90;;;;;;4972026;28;20309;-64
2022/03/30 10:11:26;;;;;;;2.13;1.90;;;13.80;99.90;;;;;;4972979;28;20636;-63
2022/03/30 10:13:55;;;;;;;2.33;2.13;;;13.80;99.90;;;;;;4975076;28;20233;-63
2022/03/30 10:16:24;;;;;;;1.92;1.83;;;13.90;99.90;;;;;;4975272;28;20245;-68
2022/03/30 10:18:52;;;;;;;2.13;1.92;;;13.90;99.90;;;;;;4975533;28;20309;-63
2022/03/30 10:21:23;;;;;;;2.33;2.13;;;13.90;99.90;;;;;;4976042;28;20250;-63
2022/03/30 10:24:11;;;;;;;1.75;1.65;;;14.00;99.90;;;;;;4975703;28;20210;-63
2022/03/30 10:26:49;;;;;;;2.88;2.28;;;14.00;99.90;;;;;;4975464;28;20313;-64
2022/03/30 10:29:18;;;;;;;2.58;1.85;;;14.10;99.90;;;;;;4972761;28;20210;-62
2022/03/30 10:32:13;;;;;;;1.73;1.63;;;14.10;99.90;;;;;;4976673;28;20199;-63
2022/03/30 10:34:59;;;;;;;1.65;1.55;;;14.10;99.90;;;;;;4974760;28;20202;-62
2022/03/30 10:37:27;;;;;;;1.65;1.55;;;14.20;99.90;;;;;;4975030;28;20241;-62
2022/03/30 10:39:58;;;;;;;2.20;2.05;;;14.30;99.90;;;;;;4974764;28;20203;-61
2022/03/30 10:42:25;;;;;;;1.73;1.63;;;14.30;99.90;;;;;;4975373;28;20207;-61
2022/03/30 10:44:57;;;;;;;1.73;1.63;;;14.40;99.90;;;;;;4974353;28;20677;-62
2022/03/30 10:47:27;;;;;;;1.80;1.70;;;14.40;99.90;;;;;;4975267;28;20289;-61
2022/03/30 10:49:56;;;;;;;3.08;1.90;;;14.50;99.90;;;;;;4975319;28;20258;-64
2022/03/30 10:52:36;;;;;;;2.00;1.80;;;14.40;99.90;;;;;;4975558;28;20206;-62
2022/03/30 10:55:31;;;;;;;2.03;1.80;;;14.30;99.90;;;;;;4974436;28;20191;-63
2022/03/30 10:58:01;;;;;;;2.00;1.90;;;14.30;99.90;;;;;;4960502;28;20239;-62
2022/03/30 11:00:31;;;;;;;2.27;1.80;;;14.30;99.90;;;;;;4968353;29;20239;-63
2022/03/30 11:03:14;;;;;;;1.63;1.52;;;14.30;99.90;;;;;;4967700;29;20300;-62
2022/03/30 11:05:45;;;;;;;1.80;1.70;;;14.20;99.90;;;;;;4967136;29;20195;-61
2022/03/30 11:08:55;;;;;;;1.90;1.70;;;14.20;99.90;;;;;;4960350;29;20642;-62
2022/03/30 11:11:24;;;;;;;2.55;2.08;;;14.10;99.90;;;;;;4941101;29;20203;-63
2022/03/30 11:14:06;;;;;;;2.45;2.30;;;13.90;99.90;;;;;;4955340;29;20266;-63
2022/03/30 11:16:48;;;;;;;2.72;2.53;;;13.60;99.90;;;;;;4968418;28;20721;-64
2022/03/30 11:19:17;;;;;;;2.38;2.17;;;12.90;99.90;;;;;;4975267;28;20225;-64
2022/03/30 11:21:54;;;;;;;2.47;2.10;;;12.70;99.90;;;;;;4975206;28;20292;-63
2022/03/30 11:24:23;;;;;;;2.40;2.20;;;12.70;99.90;;;;;;4998262;28;20202;-65
2022/03/30 11:27:21;;;;;;;1.35;1.35;;;12.80;99.90;;;;;;4997244;28;20316;-64
2022/03/30 11:29:56;;;;;;;1.25;1.20;;;12.90;99.90;;;;;;4996887;28;20206;-64
2022/03/30 11:32:43;;;;;;;1.00;1.00;;;12.80;99.90;;;;;;4996195;28;20676;-65
2022/03/30 11:35:13;;;;;;;1.05;1.05;;;12.70;99.90;;;;;;4994202;28;20198;-64
2022/03/30 11:37:42;;;;;;;1.20;1.10;;;12.80;99.90;;;;;;4994004;28;20265;-64
2022/03/30 11:40:12;;;;;;;1.20;1.10;;;12.80;99.90;;;;;;4993721;28;20296;-65
2022/03/30 11:42:41;;;;;;;1.30;1.20;;;12.90;99.90;;;;;;4994284;28;20735;-65
2022/03/30 11:45:13;;;;;;;1.40;1.30;;;12.90;99.90;;;;;;4993318;28;20269;-64
2022/03/30 11:47:43;;;;;;;1.20;1.20;;;12.80;99.90;;;;;;4993598;28;20320;-63
2022/03/30 11:50:13;;;;;;;1.60;1.50;;;12.70;99.90;;;;;;4993331;28;20232;-62
2022/03/30 11:52:40;;;;;;;2.65;2.40;;;12.50;99.90;;;;;;4993637;28;20574;-63
2022/03/30 11:55:08;;;;;;;2.63;2.47;;;12.20;99.90;;;;;;4993599;28;20300;-63
2022/03/30 11:57:40;;;;;;;2.70;2.60;;;12.10;99.90;;;;;;4959247;28;20231;-66
2022/03/30 12:00:10;;;;;;;3.45;3.25;;;12.20;99.90;;;;;;4973404;28;20289;-64
2022/03/30 12:02:38;;;;;;;2.80;2.70;;;12.20;99.90;;;;;;4974248;28;20230;-64
2022/03/30 12:05:07;;;;;;;3.50;3.30;;;12.20;99.90;;;;;;4971862;28;20207;-64
2022/03/30 12:07:37;;;;;;;3.05;2.85;;;12.20;99.90;;;;;;4973983;28;20222;-64
2022/03/30 12:10:06;;;;;;;3.00;2.80;;;12.30;99.90;;;;;;4973105;28;20292;-64
2022/03/30 12:12:36;;;;;;;2.80;2.67;;;12.50;99.90;;;;;;4974925;28;20213;-64
2022/03/30 12:15:06;;;;;;;3.20;3.00;;;12.70;99.90;;;;;;4973815;28;20214;-65
2022/03/30 12:17:34;;;;;;;2.67;2.58;;;12.90;99.90;;;;;;4975897;28;20585;-64
2022/03/30 12:20:02;;;;;;;2.97;2.77;;;13.00;99.90;;;;;;4974354;28;20206;-64
2022/03/30 12:22:31;;;;;;;2.47;2.38;;;13.10;99.90;;;;;;4977914;28;20294;-64
2022/03/30 12:24:59;;;;;;;3.15;2.95;;;13.20;99.90;;;;;;4977755;28;20661;-64
2022/03/30 12:27:26;;;;;;;2.83;2.72;;;13.30;99.90;;;;;;4977276;28;20326;-64
2022/03/30 12:29:55;;;;;;;4.00;3.80;;;13.30;99.90;;;;;;4977230;28;20215;-66
2022/03/30 12:32:23;;;;;;;3.20;3.00;;;13.10;99.90;;;;;;4977636;28;20218;-65
2022/03/30 12:34:51;;;;;;;3.70;3.50;;;13.00;99.90;;;;;;4979391;28;20225;-66
2022/03/30 12:37:22;;;;;;;3.80;3.60;;;13.10;99.90;;;;;;4978888;28;20740;-66
2022/03/30 12:39:50;;;;;;;3.80;3.60;;;13.10;99.90;;;;;;4974898;28;20207;-64
2022/03/30 12:42:25;;;;;;;3.45;3.25;;;13.00;99.90;;;;;;4975872;28;20210;-65
2022/03/30 12:44:54;;;;;;;3.30;3.10;;;13.00;99.90;;;;;;4975021;28;20214;-64
2022/03/30 12:47:29;;;;;;;4.10;3.75;;;13.10;99.90;;;;;;5016491;23;20225;-65
2022/03/30 12:49:57;;;;;;;3.30;3.10;;;13.10;99.90;;;;;;5030984;28;20212;-66
2022/03/30 12:52:32;;;;;;;3.22;3.03;;;13.20;99.90;;;;;;5032631;28;20224;-65
2022/03/30 12:55:13;;;;;;;3.70;3.50;;;13.30;99.90;;;;;;5034231;28;20215;-65
2022/03/30 12:57:55;;;;;;;3.70;3.50;;;13.30;99.90;;;;;;5031952;28;20229;-66
2022/03/30 13:00:24;;;;;;;3.78;3.55;;;13.30;99.90;;;;;;5029618;28;20273;-66
2022/03/30 13:03:10;;;;;;;3.35;3.15;;;13.30;99.90;;;;;;5018832;28;20206;-65
2022/03/30 13:05:37;;;;;;;3.70;3.50;;;13.30;99.90;;;;;;5011777;28;20626;-65